sensor_id;sensor_type;location;lat;lon;timestamp;P1;durP1;ratioP1;P2;durP2;ratioP2
31061;SDS011;17724;53.546;9.974;2024-02-23T00:02:41;9.80;;;1.00;;
31061;SDS011;17724;53.546;9.974;2024-02-23T00:06:41;6.20;;;0.90;;
31061;SDS011;17724;53.546;9.974;2024-02-23T00:10:42;6.70;;;0.63;;
31061;SDS011;17724;53.546;9.974;2024-02-23T00:14:42;6.57;;;0.70;;
31061;SDS011;17724;53.546;9.974;2024-02-23T00:18:43;10.63;;;1.20;;
31061;SDS011;17724;53.546;9.974;2024-02-23T00:22:43;7.47;;;1.10;;
31061;SDS011;17724;53.546;9.974;2024-02-23T00:26:44;6.83;;;1.10;;
31061;SDS011;17724;53.546;9.974;2024-02-23T00:30:44;6.57;;;0.80;;
31061;SDS011;17724;53.546;9.974;2024-02-23T00:34:45;6.27;;;0.70;;
31061;SDS011;17724;53.546;9.974;2024-02-23T00:38:46;8.10;;;0.80;;
31061;SDS011;17724;53.546;9.974;2024-02-23T00:42:47;7.60;;;0.87;;
31061;SDS011;17724;53.546;9.974;2024-02-23T00:46:47;8.80;;;0.90;;
31061;SDS011;17724;53.546;9.974;2024-02-23T00:50:48;10.73;;;0.80;;
31061;SDS011;17724;53.546;9.974;2024-02-23T00:54:48;6.90;;;0.70;;
31061;SDS011;17724;53.546;9.974;2024-02-23T00:58:49;6.67;;;0.60;;
31061;SDS011;17724;53.546;9.974;2024-02-23T01:02:49;6.00;;;0.50;;
31061;SDS011;17724;53.546;9.974;2024-02-23T01:06:50;6.30;;;0.60;;
31061;SDS011;17724;53.546;9.974;2024-02-23T01:10:50;5.90;;;0.40;;
31061;SDS011;17724;53.546;9.974;2024-02-23T01:14:51;6.00;;;0.60;;
31061;SDS011;17724;53.546;9.974;2024-02-23T01:18:51;8.00;;;0.60;;
31061;SDS011;17724;53.546;9.974;2024-02-23T01:22:52;7.33;;;0.63;;
31061;SDS011;17724;53.546;9.974;2024-02-23T01:26:53;6.00;;;0.40;;
31061;SDS011;17724;53.546;9.974;2024-02-23T01:30:55;6.97;;;0.80;;
31061;SDS011;17724;53.546;9.974;2024-02-23T01:34:55;6.60;;;0.50;;
31061;SDS011;17724;53.546;9.974;2024-02-23T01:38:56;6.17;;;0.40;;
31061;SDS011;17724;53.546;9.974;2024-02-23T01:43:05;6.03;;;0.50;;
31061;SDS011;17724;53.546;9.974;2024-02-23T01:47:06;6.10;;;0.53;;
31061;SDS011;17724;53.546;9.974;2024-02-23T01:51:06;5.97;;;0.47;;
31061;SDS011;17724;53.546;9.974;2024-02-23T01:55:07;7.80;;;0.70;;
31061;SDS011;17724;53.546;9.974;2024-02-23T01:59:08;6.50;;;0.50;;
31061;SDS011;17724;53.546;9.974;2024-02-23T02:03:11;6.40;;;0.60;;
31061;SDS011;17724;53.546;9.974;2024-02-23T02:07:12;6.37;;;0.60;;
31061;SDS011;17724;53.546;9.974;2024-02-23T02:11:12;6.13;;;0.50;;
31061;SDS011;17724;53.546;9.974;2024-02-23T02:15:13;5.97;;;0.40;;
31061;SDS011;17724;53.546;9.974;2024-02-23T02:19:13;6.83;;;0.40;;
31061;SDS011;17724;53.546;9.974;2024-02-23T02:23:14;6.00;;;0.40;;
31061;SDS011;17724;53.546;9.974;2024-02-23T02:27:15;6.17;;;0.57;;
31061;SDS011;17724;53.546;9.974;2024-02-23T02:31:16;6.77;;;0.67;;
31061;SDS011;17724;53.546;9.974;2024-02-23T02:35:16;6.33;;;0.50;;
31061;SDS011;17724;53.546;9.974;2024-02-23T02:39:17;6.30;;;0.70;;
31061;SDS011;17724;53.546;9.974;2024-02-23T02:43:17;6.27;;;0.60;;
31061;SDS011;17724;53.546;9.974;2024-02-23T02:47:18;6.60;;;0.60;;
31061;SDS011;17724;53.546;9.974;2024-02-23T02:51:18;6.10;;;0.57;;
31061;SDS011;17724;53.546;9.974;2024-02-23T02:55:19;6.30;;;0.43;;
31061;SDS011;17724;53.546;9.974;2024-02-23T02:59:20;6.30;;;0.40;;
31061;SDS011;17724;53.546;9.974;2024-02-23T03:03:21;6.57;;;0.53;;
31061;SDS011;17724;53.546;9.974;2024-02-23T03:07:22;6.00;;;0.50;;
31061;SDS011;17724;53.546;9.974;2024-02-23T03:11:23;6.20;;;0.80;;
31061;SDS011;17724;53.546;9.974;2024-02-23T03:15:23;6.90;;;0.53;;
31061;SDS011;17724;53.546;9.974;2024-02-23T03:19:24;6.50;;;0.50;;
31061;SDS011;17724;53.546;9.974;2024-02-23T03:23:25;6.30;;;0.53;;
31061;SDS011;17724;53.546;9.974;2024-02-23T03:27:29;6.80;;;0.70;;
31061;SDS011;17724;53.546;9.974;2024-02-23T03:31:30;6.03;;;0.40;;
31061;SDS011;17724;53.546;9.974;2024-02-23T03:35:30;6.23;;;0.70;;
31061;SDS011;17724;53.546;9.974;2024-02-23T03:39:31;6.13;;;0.53;;
31061;SDS011;17724;53.546;9.974;2024-02-23T03:43:33;6.30;;;0.80;;
31061;SDS011;17724;53.546;9.974;2024-02-23T03:47:34;6.20;;;0.60;;
31061;SDS011;17724;53.546;9.974;2024-02-23T03:51:35;6.67;;;0.50;;
31061;SDS011;17724;53.546;9.974;2024-02-23T03:55:39;6.07;;;0.60;;
31061;SDS011;17724;53.546;9.974;2024-02-23T03:59:39;7.83;;;0.70;;
31061;SDS011;17724;53.546;9.974;2024-02-23T04:03:41;6.20;;;0.40;;
31061;SDS011;17724;53.546;9.974;2024-02-23T04:07:41;6.20;;;0.50;;
31061;SDS011;17724;53.546;9.974;2024-02-23T04:11:42;6.60;;;0.53;;
31061;SDS011;17724;53.546;9.974;2024-02-23T04:15:43;7.33;;;0.60;;
31061;SDS011;17724;53.546;9.974;2024-02-23T04:19:44;6.10;;;0.70;;
31061;SDS011;17724;53.546;9.974;2024-02-23T04:23:44;6.30;;;0.60;;
31061;SDS011;17724;53.546;9.974;2024-02-23T04:27:45;6.40;;;0.60;;
31061;SDS011;17724;53.546;9.974;2024-02-23T04:31:45;6.30;;;0.50;;
31061;SDS011;17724;53.546;9.974;2024-02-23T04:35:46;6.30;;;0.77;;
31061;SDS011;17724;53.546;9.974;2024-02-23T04:39:46;6.43;;;0.60;;
31061;SDS011;17724;53.546;9.974;2024-02-23T04:43:47;6.23;;;0.70;;
31061;SDS011;17724;53.546;9.974;2024-02-23T04:47:47;6.40;;;0.70;;
31061;SDS011;17724;53.546;9.974;2024-02-23T04:51:48;6.90;;;0.60;;
31061;SDS011;17724;53.546;9.974;2024-02-23T04:55:49;6.40;;;0.80;;
31061;SDS011;17724;53.546;9.974;2024-02-23T04:59:49;6.50;;;0.70;;
31061;SDS011;17724;53.546;9.974;2024-02-23T05:03:50;8.33;;;1.10;;
31061;SDS011;17724;53.546;9.974;2024-02-23T05:07:50;7.37;;;1.10;;
31061;SDS011;17724;53.546;9.974;2024-02-23T05:11:51;8.43;;;1.57;;
31061;SDS011;17724;53.546;9.974;2024-02-23T05:15:51;7.77;;;1.20;;
31061;SDS011;17724;53.546;9.974;2024-02-23T05:19:52;8.40;;;1.50;;
31061;SDS011;17724;53.546;9.974;2024-02-23T05:23:52;8.87;;;1.30;;
31061;SDS011;17724;53.546;9.974;2024-02-23T05:27:53;7.20;;;1.20;;
31061;SDS011;17724;53.546;9.974;2024-02-23T05:31:53;8.20;;;1.57;;
31061;SDS011;17724;53.546;9.974;2024-02-23T05:35:54;8.10;;;1.10;;
31061;SDS011;17724;53.546;9.974;2024-02-23T05:39:55;7.37;;;1.30;;
31061;SDS011;17724;53.546;9.974;2024-02-23T05:43:55;7.10;;;1.40;;
31061;SDS011;17724;53.546;9.974;2024-02-23T05:47:56;8.90;;;1.30;;
31061;SDS011;17724;53.546;9.974;2024-02-23T05:51:56;6.83;;;1.30;;
31061;SDS011;17724;53.546;9.974;2024-02-23T05:55:57;7.00;;;1.03;;
31061;SDS011;17724;53.546;9.974;2024-02-23T05:59:58;7.70;;;1.30;;
31061;SDS011;17724;53.546;9.974;2024-02-23T06:03:58;7.63;;;1.50;;
31061;SDS011;17724;53.546;9.974;2024-02-23T06:07:59;6.50;;;1.00;;
31061;SDS011;17724;53.546;9.974;2024-02-23T06:12:00;7.23;;;0.90;;
31061;SDS011;17724;53.546;9.974;2024-02-23T06:16:00;7.60;;;1.07;;
31061;SDS011;17724;53.546;9.974;2024-02-23T06:20:01;6.40;;;0.83;;
31061;SDS011;17724;53.546;9.974;2024-02-23T06:24:01;7.87;;;1.30;;
31061;SDS011;17724;53.546;9.974;2024-02-23T06:28:02;6.70;;;1.20;;
31061;SDS011;17724;53.546;9.974;2024-02-23T06:32:03;6.80;;;1.10;;
31061;SDS011;17724;53.546;9.974;2024-02-23T06:36:04;8.40;;;1.40;;
31061;SDS011;17724;53.546;9.974;2024-02-23T06:40:05;7.90;;;1.10;;
31061;SDS011;17724;53.546;9.974;2024-02-23T06:44:07;7.67;;;1.20;;
31061;SDS011;17724;53.546;9.974;2024-02-23T06:48:07;6.80;;;0.90;;
31061;SDS011;17724;53.546;9.974;2024-02-23T06:52:08;8.00;;;1.10;;
31061;SDS011;17724;53.546;9.974;2024-02-23T06:56:10;7.27;;;1.00;;
31061;SDS011;17724;53.546;9.974;2024-02-23T07:00:10;7.37;;;1.67;;
31061;SDS011;17724;53.546;9.974;2024-02-23T07:04:11;10.97;;;1.30;;
31061;SDS011;17724;53.546;9.974;2024-02-23T07:08:11;7.67;;;1.80;;
31061;SDS011;17724;53.546;9.974;2024-02-23T07:12:12;9.80;;;1.50;;
31061;SDS011;17724;53.546;9.974;2024-02-23T07:16:13;7.47;;;1.33;;
31061;SDS011;17724;53.546;9.974;2024-02-23T07:20:14;7.97;;;1.43;;
31061;SDS011;17724;53.546;9.974;2024-02-23T07:24:14;9.07;;;1.60;;
31061;SDS011;17724;53.546;9.974;2024-02-23T07:28:15;9.03;;;1.70;;
31061;SDS011;17724;53.546;9.974;2024-02-23T07:32:18;12.50;;;1.77;;
31061;SDS011;17724;53.546;9.974;2024-02-23T07:36:19;8.60;;;1.60;;
31061;SDS011;17724;53.546;9.974;2024-02-23T07:40:19;7.63;;;1.30;;
31061;SDS011;17724;53.546;9.974;2024-02-23T07:44:20;9.63;;;1.50;;
31061;SDS011;17724;53.546;9.974;2024-02-23T07:48:20;7.90;;;1.90;;
31061;SDS011;17724;53.546;9.974;2024-02-23T07:52:21;8.13;;;1.63;;
31061;SDS011;17724;53.546;9.974;2024-02-23T07:56:24;8.10;;;1.53;;
31061;SDS011;17724;53.546;9.974;2024-02-23T08:00:24;7.87;;;1.30;;
31061;SDS011;17724;53.546;9.974;2024-02-23T08:04:25;7.77;;;1.77;;
31061;SDS011;17724;53.546;9.974;2024-02-23T08:08:25;9.37;;;2.30;;
31061;SDS011;17724;53.546;9.974;2024-02-23T08:12:27;8.40;;;1.80;;
31061;SDS011;17724;53.546;9.974;2024-02-23T08:16:28;9.77;;;1.80;;
31061;SDS011;17724;53.546;9.974;2024-02-23T08:20:29;7.47;;;1.50;;
31061;SDS011;17724;53.546;9.974;2024-02-23T08:24:29;10.87;;;1.70;;
31061;SDS011;17724;53.546;9.974;2024-02-23T08:28:30;8.00;;;1.40;;
31061;SDS011;17724;53.546;9.974;2024-02-23T08:32:30;8.40;;;1.07;;
31061;SDS011;17724;53.546;9.974;2024-02-23T08:36:31;8.00;;;1.60;;
31061;SDS011;17724;53.546;9.974;2024-02-23T08:40:31;8.30;;;1.60;;
31061;SDS011;17724;53.546;9.974;2024-02-23T08:44:31;8.33;;;1.43;;
31061;SDS011;17724;53.546;9.974;2024-02-23T08:48:32;7.00;;;1.30;;
31061;SDS011;17724;53.546;9.974;2024-02-23T08:52:32;8.63;;;1.60;;
31061;SDS011;17724;53.546;9.974;2024-02-23T08:56:39;9.13;;;1.40;;
31061;SDS011;17724;53.546;9.974;2024-02-23T09:00:42;7.20;;;1.37;;
31061;SDS011;17724;53.546;9.974;2024-02-23T09:04:42;8.20;;;1.47;;
31061;SDS011;17724;53.546;9.974;2024-02-23T09:08:44;9.37;;;1.40;;
31061;SDS011;17724;53.546;9.974;2024-02-23T09:12:45;8.00;;;1.33;;
31061;SDS011;17724;53.546;9.974;2024-02-23T09:16:45;7.83;;;1.30;;
31061;SDS011;17724;53.546;9.974;2024-02-23T09:20:48;10.80;;;1.70;;
31061;SDS011;17724;53.546;9.974;2024-02-23T09:24:48;7.37;;;1.03;;
31061;SDS011;17724;53.546;9.974;2024-02-23T09:28:49;11.50;;;1.50;;
31061;SDS011;17724;53.546;9.974;2024-02-23T09:32:50;7.70;;;1.27;;
31061;SDS011;17724;53.546;9.974;2024-02-23T09:36:50;7.90;;;1.20;;
31061;SDS011;17724;53.546;9.974;2024-02-23T09:40:51;8.70;;;1.30;;
31061;SDS011;17724;53.546;9.974;2024-02-23T09:44:57;7.30;;;1.00;;
31061;SDS011;17724;53.546;9.974;2024-02-23T09:48:59;7.13;;;1.10;;
31061;SDS011;17724;53.546;9.974;2024-02-23T09:53:01;6.60;;;1.20;;
31061;SDS011;17724;53.546;9.974;2024-02-23T09:57:01;13.17;;;1.40;;
31061;SDS011;17724;53.546;9.974;2024-02-23T10:01:07;9.87;;;1.57;;
31061;SDS011;17724;53.546;9.974;2024-02-23T10:05:11;10.00;;;3.90;;
31061;SDS011;17724;53.546;9.974;2024-02-23T10:09:17;9.70;;;3.60;;
31061;SDS011;17724;53.546;9.974;2024-02-23T10:13:19;10.27;;;2.07;;
31061;SDS011;17724;53.546;9.974;2024-02-23T10:17:20;11.30;;;1.80;;
31061;SDS011;17724;53.546;9.974;2024-02-23T10:21:21;9.30;;;2.00;;
31061;SDS011;17724;53.546;9.974;2024-02-23T10:25:21;10.27;;;1.90;;
31061;SDS011;17724;53.546;9.974;2024-02-23T10:29:23;10.57;;;4.77;;
31061;SDS011;17724;53.546;9.974;2024-02-23T10:33:23;9.87;;;3.37;;
31061;SDS011;17724;53.546;9.974;2024-02-23T10:37:24;8.10;;;1.70;;
31061;SDS011;17724;53.546;9.974;2024-02-23T10:41:25;11.13;;;3.60;;
31061;SDS011;17724;53.546;9.974;2024-02-23T10:45:27;11.60;;;3.20;;
31061;SDS011;17724;53.546;9.974;2024-02-23T10:49:28;7.90;;;1.40;;
31061;SDS011;17724;53.546;9.974;2024-02-23T10:53:30;8.93;;;2.20;;
31061;SDS011;17724;53.546;9.974;2024-02-23T10:57:31;12.30;;;2.60;;
31061;SDS011;17724;53.546;9.974;2024-02-23T11:01:35;7.60;;;2.00;;
31061;SDS011;17724;53.546;9.974;2024-02-23T11:05:39;9.67;;;2.10;;
31061;SDS011;17724;53.546;9.974;2024-02-23T11:09:40;7.97;;;1.30;;
31061;SDS011;17724;53.546;9.974;2024-02-23T11:13:42;9.60;;;2.17;;
31061;SDS011;17724;53.546;9.974;2024-02-23T11:17:49;8.33;;;1.80;;
31061;SDS011;17724;53.546;9.974;2024-02-23T11:21:52;8.13;;;2.43;;
31061;SDS011;17724;53.546;9.974;2024-02-23T11:30:06;9.43;;;2.27;;
31061;SDS011;17724;53.546;9.974;2024-02-23T11:34:08;10.60;;;2.17;;
31061;SDS011;17724;53.546;9.974;2024-02-23T11:38:09;9.37;;;1.97;;
31061;SDS011;17724;53.546;9.974;2024-02-23T11:42:10;9.20;;;2.33;;
31061;SDS011;17724;53.546;9.974;2024-02-23T11:46:12;9.17;;;3.03;;
31061;SDS011;17724;53.546;9.974;2024-02-23T11:50:13;7.37;;;2.07;;
31061;SDS011;17724;53.546;9.974;2024-02-23T11:54:15;9.27;;;1.73;;
31061;SDS011;17724;53.546;9.974;2024-02-23T11:58:16;9.30;;;2.60;;
31061;SDS011;17724;53.546;9.974;2024-02-23T12:02:16;7.57;;;2.10;;
31061;SDS011;17724;53.546;9.974;2024-02-23T12:06:17;8.87;;;1.77;;
31061;SDS011;17724;53.546;9.974;2024-02-23T12:10:17;9.37;;;3.50;;
31061;SDS011;17724;53.546;9.974;2024-02-23T12:14:18;9.03;;;2.50;;
31061;SDS011;17724;53.546;9.974;2024-02-23T12:18:22;8.70;;;2.60;;
31061;SDS011;17724;53.546;9.974;2024-02-23T12:22:24;7.77;;;2.23;;
31061;SDS011;17724;53.546;9.974;2024-02-23T12:26:25;7.90;;;2.67;;
31061;SDS011;17724;53.546;9.974;2024-02-23T12:30:26;8.40;;;2.70;;
31061;SDS011;17724;53.546;9.974;2024-02-23T12:34:28;9.03;;;1.93;;
31061;SDS011;17724;53.546;9.974;2024-02-23T12:38:29;7.67;;;1.30;;
31061;SDS011;17724;53.546;9.974;2024-02-23T12:42:29;9.30;;;3.40;;
31061;SDS011;17724;53.546;9.974;2024-02-23T12:46:30;7.77;;;2.30;;
31061;SDS011;17724;53.546;9.974;2024-02-23T12:50:30;8.10;;;1.40;;
31061;SDS011;17724;53.546;9.974;2024-02-23T12:54:32;8.00;;;2.40;;
31061;SDS011;17724;53.546;9.974;2024-02-23T12:58:33;7.07;;;2.73;;
31061;SDS011;17724;53.546;9.974;2024-02-23T13:02:35;6.50;;;1.83;;
31061;SDS011;17724;53.546;9.974;2024-02-23T13:06:42;69.47;;;27.30;;
31061;SDS011;17724;53.546;9.974;2024-02-23T13:10:43;44.10;;;26.23;;
31061;SDS011;17724;53.546;9.974;2024-02-23T13:14:44;144.47;;;99.10;;
31061;SDS011;17724;53.546;9.974;2024-02-23T13:18:44;34.07;;;28.03;;
31061;SDS011;17724;53.546;9.974;2024-02-23T13:22:46;17.73;;;11.93;;
31061;SDS011;17724;53.546;9.974;2024-02-23T13:26:47;15.60;;;9.00;;
31061;SDS011;17724;53.546;9.974;2024-02-23T13:30:47;20.83;;;10.00;;
31061;SDS011;17724;53.546;9.974;2024-02-23T13:34:48;10.90;;;4.83;;
31061;SDS011;17724;53.546;9.974;2024-02-23T13:38:52;11.80;;;7.53;;
31061;SDS011;17724;53.546;9.974;2024-02-23T13:42:55;11.87;;;6.53;;
31061;SDS011;17724;53.546;9.974;2024-02-23T13:46:56;13.40;;;8.10;;
31061;SDS011;17724;53.546;9.974;2024-02-23T13:50:56;9.50;;;3.27;;
31061;SDS011;17724;53.546;9.974;2024-02-23T13:54:57;11.17;;;5.60;;
31061;SDS011;17724;53.546;9.974;2024-02-23T13:58:57;8.60;;;3.80;;
31061;SDS011;17724;53.546;9.974;2024-02-23T14:02:58;14.20;;;8.00;;
31061;SDS011;17724;53.546;9.974;2024-02-23T14:06:58;6.30;;;2.07;;
31061;SDS011;17724;53.546;9.974;2024-02-23T14:10:59;11.83;;;4.97;;
31061;SDS011;17724;53.546;9.974;2024-02-23T14:15:00;7.80;;;3.00;;
31061;SDS011;17724;53.546;9.974;2024-02-23T14:19:01;11.50;;;6.73;;
31061;SDS011;17724;53.546;9.974;2024-02-23T14:23:02;8.20;;;4.27;;
31061;SDS011;17724;53.546;9.974;2024-02-23T14:27:02;8.27;;;3.80;;
31061;SDS011;17724;53.546;9.974;2024-02-23T14:31:03;6.20;;;1.67;;
31061;SDS011;17724;53.546;9.974;2024-02-23T14:35:03;10.00;;;2.13;;
31061;SDS011;17724;53.546;9.974;2024-02-23T14:39:04;7.20;;;2.70;;
31061;SDS011;17724;53.546;9.974;2024-02-23T14:43:05;7.00;;;2.10;;
31061;SDS011;17724;53.546;9.974;2024-02-23T14:47:05;7.77;;;1.40;;
31061;SDS011;17724;53.546;9.974;2024-02-23T14:51:06;15.10;;;11.53;;
31061;SDS011;17724;53.546;9.974;2024-02-23T14:55:08;5.60;;;1.53;;
31061;SDS011;17724;53.546;9.974;2024-02-23T14:59:11;29.73;;;20.93;;
31061;SDS011;17724;53.546;9.974;2024-02-23T15:03:12;23.40;;;16.07;;
31061;SDS011;17724;53.546;9.974;2024-02-23T15:07:13;46.00;;;40.30;;
31061;SDS011;17724;53.546;9.974;2024-02-23T15:11:13;13.27;;;6.17;;
31061;SDS011;17724;53.546;9.974;2024-02-23T15:15:14;11.00;;;6.90;;
31061;SDS011;17724;53.546;9.974;2024-02-23T15:19:15;6.83;;;2.57;;
31061;SDS011;17724;53.546;9.974;2024-02-23T15:23:16;7.90;;;2.33;;
31061;SDS011;17724;53.546;9.974;2024-02-23T15:27:17;9.97;;;4.90;;
31061;SDS011;17724;53.546;9.974;2024-02-23T15:31:18;7.10;;;3.20;;
31061;SDS011;17724;53.546;9.974;2024-02-23T15:35:19;8.70;;;3.73;;
31061;SDS011;17724;53.546;9.974;2024-02-23T15:39:19;5.57;;;1.10;;
31061;SDS011;17724;53.546;9.974;2024-02-23T15:43:20;18.60;;;11.23;;
31061;SDS011;17724;53.546;9.974;2024-02-23T15:47:22;23.20;;;15.57;;
31061;SDS011;17724;53.546;9.974;2024-02-23T15:51:22;15.30;;;8.50;;
31061;SDS011;17724;53.546;9.974;2024-02-23T15:55:23;11.47;;;6.37;;
31061;SDS011;17724;53.546;9.974;2024-02-23T15:59:24;13.90;;;8.83;;
31061;SDS011;17724;53.546;9.974;2024-02-23T16:03:24;12.27;;;3.40;;
31061;SDS011;17724;53.546;9.974;2024-02-23T16:07:25;10.57;;;4.80;;
31061;SDS011;17724;53.546;9.974;2024-02-23T16:11:25;6.10;;;1.60;;
31061;SDS011;17724;53.546;9.974;2024-02-23T16:15:27;24.77;;;11.07;;
31061;SDS011;17724;53.546;9.974;2024-02-23T16:19:28;28.43;;;21.83;;
31061;SDS011;17724;53.546;9.974;2024-02-23T16:23:28;18.30;;;13.90;;
31061;SDS011;17724;53.546;9.974;2024-02-23T16:27:29;52.23;;;35.00;;
31061;SDS011;17724;53.546;9.974;2024-02-23T16:31:30;33.53;;;26.27;;
31061;SDS011;17724;53.546;9.974;2024-02-23T16:35:30;35.87;;;30.00;;
31061;SDS011;17724;53.546;9.974;2024-02-23T16:39:31;38.07;;;18.57;;
31061;SDS011;17724;53.546;9.974;2024-02-23T16:43:31;28.63;;;22.00;;
31061;SDS011;17724;53.546;9.974;2024-02-23T16:47:33;9.83;;;5.10;;
31061;SDS011;17724;53.546;9.974;2024-02-23T16:51:34;15.60;;;10.13;;
31061;SDS011;17724;53.546;9.974;2024-02-23T16:55:34;32.40;;;27.13;;
31061;SDS011;17724;53.546;9.974;2024-02-23T16:59:35;135.17;;;95.27;;
31061;SDS011;17724;53.546;9.974;2024-02-23T17:03:35;24.83;;;17.30;;
31061;SDS011;17724;53.546;9.974;2024-02-23T17:07:36;27.07;;;19.77;;
31061;SDS011;17724;53.546;9.974;2024-02-23T17:11:37;34.37;;;23.07;;
31061;SDS011;17724;53.546;9.974;2024-02-23T17:15:38;12.57;;;6.77;;
31061;SDS011;17724;53.546;9.974;2024-02-23T17:19:38;21.40;;;14.07;;
31061;SDS011;17724;53.546;9.974;2024-02-23T17:23:40;15.47;;;10.43;;
31061;SDS011;17724;53.546;9.974;2024-02-23T17:27:41;25.70;;;17.23;;
31061;SDS011;17724;53.546;9.974;2024-02-23T17:31:42;20.60;;;14.37;;
31061;SDS011;17724;53.546;9.974;2024-02-23T17:35:43;46.23;;;25.50;;
31061;SDS011;17724;53.546;9.974;2024-02-23T17:39:43;56.53;;;43.83;;
31061;SDS011;17724;53.546;9.974;2024-02-23T17:43:44;56.00;;;39.50;;
31061;SDS011;17724;53.546;9.974;2024-02-23T17:47:44;58.93;;;44.80;;
31061;SDS011;17724;53.546;9.974;2024-02-23T17:51:45;32.93;;;26.10;;
31061;SDS011;17724;53.546;9.974;2024-02-23T17:55:46;41.40;;;29.50;;
31061;SDS011;17724;53.546;9.974;2024-02-23T17:59:46;16.30;;;9.33;;
31061;SDS011;17724;53.546;9.974;2024-02-23T18:03:47;33.60;;;23.60;;
31061;SDS011;17724;53.546;9.974;2024-02-23T18:07:48;15.10;;;12.13;;
31061;SDS011;17724;53.546;9.974;2024-02-23T18:11:48;102.77;;;76.60;;
31061;SDS011;17724;53.546;9.974;2024-02-23T18:15:49;44.40;;;32.13;;
31061;SDS011;17724;53.546;9.974;2024-02-23T18:19:52;62.00;;;40.67;;
31061;SDS011;17724;53.546;9.974;2024-02-23T18:23:53;56.30;;;46.47;;
31061;SDS011;17724;53.546;9.974;2024-02-23T18:27:53;25.57;;;18.93;;
31061;SDS011;17724;53.546;9.974;2024-02-23T18:31:54;54.47;;;41.00;;
31061;SDS011;17724;53.546;9.974;2024-02-23T18:35:54;88.40;;;63.63;;
31061;SDS011;17724;53.546;9.974;2024-02-23T18:39:55;38.73;;;30.43;;
31061;SDS011;17724;53.546;9.974;2024-02-23T18:43:56;59.33;;;45.90;;
31061;SDS011;17724;53.546;9.974;2024-02-23T18:47:57;20.43;;;17.53;;
31061;SDS011;17724;53.546;9.974;2024-02-23T18:51:58;11.87;;;5.57;;
31061;SDS011;17724;53.546;9.974;2024-02-23T18:55:59;10.70;;;6.40;;
31061;SDS011;17724;53.546;9.974;2024-02-23T19:00:00;26.00;;;19.00;;
31061;SDS011;17724;53.546;9.974;2024-02-23T19:04:00;12.60;;;9.90;;
31061;SDS011;17724;53.546;9.974;2024-02-23T19:08:01;22.93;;;17.13;;
31061;SDS011;17724;53.546;9.974;2024-02-23T19:12:02;12.73;;;8.17;;
31061;SDS011;17724;53.546;9.974;2024-02-23T19:16:03;12.60;;;6.73;;
31061;SDS011;17724;53.546;9.974;2024-02-23T19:20:04;10.70;;;6.53;;
31061;SDS011;17724;53.546;9.974;2024-02-23T19:24:09;51.40;;;39.77;;
31061;SDS011;17724;53.546;9.974;2024-02-23T19:28:09;11.87;;;6.40;;
31061;SDS011;17724;53.546;9.974;2024-02-23T19:32:09;24.23;;;15.77;;
31061;SDS011;17724;53.546;9.974;2024-02-23T19:36:10;61.47;;;49.23;;
31061;SDS011;17724;53.546;9.974;2024-02-23T19:40:11;38.77;;;29.00;;
31061;SDS011;17724;53.546;9.974;2024-02-23T19:44:13;24.60;;;18.80;;
31061;SDS011;17724;53.546;9.974;2024-02-23T19:48:14;22.33;;;15.40;;
31061;SDS011;17724;53.546;9.974;2024-02-23T19:52:14;15.53;;;10.10;;
31061;SDS011;17724;53.546;9.974;2024-02-23T19:56:14;43.27;;;32.60;;
31061;SDS011;17724;53.546;9.974;2024-02-23T20:00:15;48.60;;;31.50;;
31061;SDS011;17724;53.546;9.974;2024-02-23T20:04:16;46.30;;;30.40;;
31061;SDS011;17724;53.546;9.974;2024-02-23T20:08:17;71.67;;;49.93;;
31061;SDS011;17724;53.546;9.974;2024-02-23T20:12:19;22.33;;;16.17;;
31061;SDS011;17724;53.546;9.974;2024-02-23T20:16:20;22.90;;;18.63;;
31061;SDS011;17724;53.546;9.974;2024-02-23T20:20:21;14.23;;;9.53;;
31061;SDS011;17724;53.546;9.974;2024-02-23T20:24:21;18.90;;;14.40;;
31061;SDS011;17724;53.546;9.974;2024-02-23T20:28:22;9.17;;;4.70;;
31061;SDS011;17724;53.546;9.974;2024-02-23T20:32:22;15.00;;;13.10;;
31061;SDS011;17724;53.546;9.974;2024-02-23T20:36:23;11.93;;;7.83;;
31061;SDS011;17724;53.546;9.974;2024-02-23T20:40:24;11.03;;;6.43;;
31061;SDS011;17724;53.546;9.974;2024-02-23T20:44:24;8.63;;;4.80;;
31061;SDS011;17724;53.546;9.974;2024-02-23T20:48:25;10.73;;;4.40;;
31061;SDS011;17724;53.546;9.974;2024-02-23T20:52:25;10.20;;;5.80;;
31061;SDS011;17724;53.546;9.974;2024-02-23T20:56:25;14.43;;;9.67;;
31061;SDS011;17724;53.546;9.974;2024-02-23T21:00:31;7.37;;;2.80;;
31061;SDS011;17724;53.546;9.974;2024-02-23T21:04:31;8.27;;;4.17;;
31061;SDS011;17724;53.546;9.974;2024-02-23T21:08:32;8.00;;;2.77;;
31061;SDS011;17724;53.546;9.974;2024-02-23T21:12:33;11.17;;;4.77;;
31061;SDS011;17724;53.546;9.974;2024-02-23T21:16:33;8.30;;;3.93;;
31061;SDS011;17724;53.546;9.974;2024-02-23T21:20:34;15.17;;;10.03;;
31061;SDS011;17724;53.546;9.974;2024-02-23T21:24:34;10.90;;;5.83;;
31061;SDS011;17724;53.546;9.974;2024-02-23T21:28:35;9.50;;;4.03;;
31061;SDS011;17724;53.546;9.974;2024-02-23T21:32:36;9.63;;;4.40;;
31061;SDS011;17724;53.546;9.974;2024-02-23T21:36:37;15.60;;;8.53;;
31061;SDS011;17724;53.546;9.974;2024-02-23T21:40:37;13.03;;;7.70;;
31061;SDS011;17724;53.546;9.974;2024-02-23T21:44:38;7.63;;;3.40;;
31061;SDS011;17724;53.546;9.974;2024-02-23T21:48:39;7.87;;;2.97;;
31061;SDS011;17724;53.546;9.974;2024-02-23T21:52:41;13.43;;;7.60;;
31061;SDS011;17724;53.546;9.974;2024-02-23T21:56:44;9.53;;;5.03;;
31061;SDS011;17724;53.546;9.974;2024-02-23T22:00:45;8.37;;;3.40;;
31061;SDS011;17724;53.546;9.974;2024-02-23T22:04:45;7.50;;;3.10;;
31061;SDS011;17724;53.546;9.974;2024-02-23T22:08:46;13.70;;;7.33;;
31061;SDS011;17724;53.546;9.974;2024-02-23T22:12:47;14.17;;;8.00;;
31061;SDS011;17724;53.546;9.974;2024-02-23T22:16:47;11.00;;;4.70;;
31061;SDS011;17724;53.546;9.974;2024-02-23T22:20:47;15.43;;;10.60;;
31061;SDS011;17724;53.546;9.974;2024-02-23T22:24:48;10.40;;;3.80;;
31061;SDS011;17724;53.546;9.974;2024-02-23T22:28:48;9.17;;;3.27;;
31061;SDS011;17724;53.546;9.974;2024-02-23T22:32:49;10.00;;;4.00;;
31061;SDS011;17724;53.546;9.974;2024-02-23T22:36:49;7.67;;;2.50;;
31061;SDS011;17724;53.546;9.974;2024-02-23T22:40:50;6.17;;;1.93;;
31061;SDS011;17724;53.546;9.974;2024-02-23T22:44:50;7.03;;;1.53;;
31061;SDS011;17724;53.546;9.974;2024-02-23T22:48:51;5.53;;;1.23;;
31061;SDS011;17724;53.546;9.974;2024-02-23T22:52:52;7.80;;;1.00;;
31061;SDS011;17724;53.546;9.974;2024-02-23T22:56:52;6.03;;;1.00;;
31061;SDS011;17724;53.546;9.974;2024-02-23T23:00:53;6.03;;;1.27;;
31061;SDS011;17724;53.546;9.974;2024-02-23T23:04:53;6.03;;;1.30;;
31061;SDS011;17724;53.546;9.974;2024-02-23T23:08:54;5.63;;;1.13;;
31061;SDS011;17724;53.546;9.974;2024-02-23T23:12:54;6.47;;;1.17;;
31061;SDS011;17724;53.546;9.974;2024-02-23T23:16:55;5.67;;;1.77;;
31061;SDS011;17724;53.546;9.974;2024-02-23T23:20:55;5.87;;;1.33;;
31061;SDS011;17724;53.546;9.974;2024-02-23T23:24:56;7.67;;;1.00;;
31061;SDS011;17724;53.546;9.974;2024-02-23T23:28:56;6.97;;;1.80;;
31061;SDS011;17724;53.546;9.974;2024-02-23T23:32:57;6.30;;;1.40;;
31061;SDS011;17724;53.546;9.974;2024-02-23T23:36:57;11.67;;;1.60;;
31061;SDS011;17724;53.546;9.974;2024-02-23T23:40:58;6.43;;;1.10;;
31061;SDS011;17724;53.546;9.974;2024-02-23T23:44:59;5.47;;;0.93;;
31061;SDS011;17724;53.546;9.974;2024-02-23T23:48:59;5.93;;;0.90;;
31061;SDS011;17724;53.546;9.974;2024-02-23T23:53:00;5.70;;;1.23;;
31061;SDS011;17724;53.546;9.974;2024-02-23T23:57:00;7.20;;;1.73;;
